FNLUFNGI

Guest
Details From FNLU - LUANDA 4 DE FEVEREIRO
To FNGI - NGIVA
Flight Number -
Tags generated
Created
Modified
Stats Distance 558 nm / 1,034 km
Max Altitude 35,000 ft / 10,668 m
Waypoints 6
Social Downloads 1
Likes 0
Share VATSIM

Download

Looking for another format? Having issues loading an existing format? Contact us
Advertisement - Login to hide

Notes

Basic altitude profile: - Ascent Rate: 2500ft/min - Ascent Speed: 250kts - Cruise Altitude: 35000ft - Cruise Speed: 420kts - Descent Rate: 1500ft/min - Descent Speed: 250kts Options: - Use NATs: yes - Use PACOTS: yes - Use low airways: yes - Use high airways: yes

Route

FNLU ARGOL R987F UVAMO UR987F ILGOL R987F ANVAG FNGI

ID Type Via Altitude Latitude Longitude Leg Dist Tot Dist Heading (true) Name
O FNLU APT - 0 ft / 0 m -8.85838˚ 13.23118˚ - 0 nm - LUANDA 4 DE FEVEREIRO
ARGOL FIX - 27,100 ft / 8,260 m -10.11667˚ 13.61667˚ 78 nm 78 nm 163° / 163° -
UVAMO FIX R987F (AWY-LO) 23,500 ft / 7,163 m -10.76833˚ 13.80167˚ 40 nm 119 nm 164° / 164° -
ILGOL FIX UR987F (AWY-HI) 35,000 ft / 10,668 m -12.68500˚ 14.36000˚ 119 nm 239 nm 164° / 164° -
ANVAG FIX R987F (AWY-LO) 11,000 ft / 3,353 m -17.41750˚ 15.77333˚ 295 nm 535 nm 164° / 164° -
O FNGI APT - 0 ft / 0 m -17.04347˚ 15.68382˚ 23 nm 558 nm 347° / 347° NGIVA

Altitude Profile

Advertisement - Login to hide

Weather


0- 5 10 15 20 25 30 35+ Temperature / ° C

Clouds and Precipitation
Forecast for 2017-12-15 12:00 UTC. Updated an hour ago

Ground ~20,000 ft ~40,000 ft Winds

FNLU

Details ICAO FNLU (LAD)
Name LUANDA 4 DE FEVEREIRO
Region Angola
Timezone Africa/Luanda (UTC+1.0)
Stats Elevation 243 ft / 74 m (AMSL)
Location -8.858377° 13.231178°
Runways 2
Magnetic Variation 3.482° W

METAR

FNLU 151100Z 28008KT 9999 FEW018 SCT022 29/22 Q1010

Decode

TAF

Not found

Departure Runways

ID Width Length Bearing (true) Bearing (mag) Surface Threshold Offset Overrun Length
05 148 ft / 45 m 12,153 ft / 3,704 m 46.63° 50.11° Asphalt 0 ft / 0 m 0 ft / 0 m
07 197 ft / 60 m 8,176 ft / 2,492 m 67.40° 70.88° Asphalt 0 ft / 0 m 176 ft / 54 m
23 148 ft / 45 m 12,153 ft / 3,704 m 226.62° 230.10° Asphalt 500 ft / 152 m 0 ft / 0 m
25 197 ft / 60 m 8,176 ft / 2,492 m 247.40° 250.88° Asphalt 0 ft / 0 m 0 ft / 0 m

FNGI

Details ICAO FNGI (VPE)
Name NGIVA
Region Angola
Timezone Africa/Luanda (UTC+1.0)
Stats Elevation 3,566 ft / 1,087 m (AMSL)
Location -17.043465° 15.683824°
Runways 1
Magnetic Variation 7.250° W

METAR

FNGI 151100Z 14006KT 9999 FEW015 33/04 Q1017

Decode

TAF

Not found

Destination Runways

ID Width Length Bearing (true) Bearing (mag) Surface Threshold Offset Overrun Length
13 95 ft / 29 m 10,640 ft / 3,243 m 115.00° 122.25° Asphalt 0 ft / 0 m 200 ft / 61 m
31 95 ft / 29 m 10,640 ft / 3,243 m 294.99° 302.24° Asphalt 0 ft / 0 m 200 ft / 61 m

Popular Alternatives